Time;durP1;ratioP1;P1;durP2;ratioP2;P2;SDS_P1;SDS_P2;PMS_P1;PMS_P2;Temp;Humidity;BMP_temperature;BMP_pressure;BME280_temperature;BME280_humidity;BME280_pressure;Samples;Min_cycle;Max_cycle;Signal;HPM_P1;HPM_P2
2022/04/20 00:00:32;;;;;;;;;;;6.20;88.80;;;;;;5077778;28;19942;-74
2022/04/20 00:02:58;;;;;;;;;;;6.10;88.40;;;;;;5061307;28;19920;-75
2022/04/20 00:05:24;;;;;;;;;;;6.10;88.00;;;;;;5077712;28;19977;-74
2022/04/20 00:07:49;;;;;;;;;;;6.10;88.00;;;;;;5095224;28;20293;-73
2022/04/20 00:10:15;;;;;;;;;;;6.00;87.50;;;;;;5063617;28;19927;-73
2022/04/20 00:12:40;;;;;;;;;;;6.00;88.50;;;;;;5062555;28;19971;-73
2022/04/20 00:15:06;;;;;;;;;;;6.00;88.60;;;;;;5060791;28;19916;-74
2022/04/20 00:17:35;;;;;;;;;;;6.00;88.70;;;;;;5076515;28;19919;-73
2022/04/20 00:20:01;;;;;;;;;;;6.00;88.20;;;;;;5060304;28;19954;-73
2022/04/20 00:22:26;;;;;;;;;;;6.10;87.70;;;;;;5060576;28;19965;-75
2022/04/20 00:24:52;;;;;;;;;;;6.00;87.10;;;;;;5077064;28;19920;-73
2022/04/20 00:27:18;;;;;;;;;;;6.00;86.80;;;;;;5060603;28;19926;-74
2022/04/20 00:29:44;;;;;;;;;;;6.00;86.20;;;;;;5077066;28;20026;-73
2022/04/20 00:32:09;;;;;;;;;;;5.80;85.60;;;;;;5076521;28;20073;-74
2022/04/20 00:34:35;;;;;;;;;;;5.70;85.80;;;;;;5060113;28;20273;-74
2022/04/20 00:37:01;;;;;;;;;;;5.70;85.30;;;;;;5076957;28;19924;-74
2022/04/20 00:39:26;;;;;;;;;;;5.50;84.80;;;;;;5076778;28;19920;-73
2022/04/20 00:41:52;;;;;;;;;;;5.50;84.90;;;;;;5060466;28;19920;-74
2022/04/20 00:44:19;;;;;;;;;;;5.60;84.50;;;;;;5060055;28;20014;-73
2022/04/20 00:46:45;;;;;;;;;;;5.40;84.20;;;;;;5076927;28;19924;-74
2022/04/20 00:49:11;;;;;;;;;;;5.50;83.90;;;;;;5075981;28;20415;-74
2022/04/20 00:51:37;;;;;;;;;;;5.20;84.10;;;;;;5076342;28;19920;-73
2022/04/20 00:54:03;;;;;;;;;;;5.20;83.50;;;;;;5076335;28;20277;-74
2022/04/20 00:56:28;;;;;;;;;;;5.20;82.80;;;;;;5076707;28;19924;-74
2022/04/20 00:58:56;;;;;;;;;;;5.20;82.30;;;;;;5076362;28;19920;-73
2022/04/20 01:01:22;;;;;;;;;;;5.50;82.80;;;;;;5060125;28;19920;-74
2022/04/20 01:03:47;;;;;;;;;;;5.40;82.20;;;;;;5075710;28;19964;-74
2022/04/20 01:06:13;;;;;;;;;;;5.70;82.40;;;;;;5059915;28;19920;-73
2022/04/20 01:08:38;;;;;;;;;;;5.50;81.90;;;;;;5060020;28;19920;-75
2022/04/20 01:11:05;;;;;;;;;;;5.30;81.70;;;;;;5076129;28;19927;-74
2022/04/20 01:13:30;;;;;;;;;;;5.40;80.80;;;;;;5075659;28;19975;-74
2022/04/20 01:15:56;;;;;;;;;;;5.40;80.50;;;;;;5075911;28;20064;-75
2022/04/20 01:18:22;;;;;;;;;;;5.30;80.10;;;;;;5075842;28;19916;-75
2022/04/20 01:20:47;;;;;;;;;;;5.10;80.00;;;;;;5059870;28;19927;-74
2022/04/20 01:23:13;;;;;;;;;;;5.30;80.20;;;;;;5059482;28;19927;-75
2022/04/20 01:25:39;;;;;;;;;;;5.40;80.80;;;;;;5076209;28;20411;-75
2022/04/20 01:28:05;;;;;;;;;;;5.00;80.30;;;;;;5059710;28;19931;-74
2022/04/20 01:30:31;;;;;;;;;;;5.00;80.10;;;;;;5076374;28;19919;-74
2022/04/20 01:32:57;;;;;;;;;;;5.50;80.90;;;;;;5076506;28;20308;-75
2022/04/20 01:35:23;;;;;;;;;;;4.90;80.40;;;;;;5076458;28;20015;-74
2022/04/20 01:37:52;;;;;;;;;;;4.90;80.40;;;;;;5060505;28;19934;-72
2022/04/20 01:40:18;;;;;;;;;;;4.90;80.50;;;;;;5078668;28;19920;-72
2022/04/20 01:42:43;;;;;;;;;;;4.80;80.70;;;;;;5076896;28;19998;-75
2022/04/20 01:45:09;;;;;;;;;;;5.20;81.10;;;;;;5058946;28;20502;-75
2022/04/20 01:47:35;;;;;;;;;;;4.80;80.60;;;;;;5059285;28;19916;-74
2022/04/20 01:50:00;;;;;;;;;;;4.90;80.70;;;;;;5059059;28;19915;-74
2022/04/20 01:52:26;;;;;;;;;;;4.70;81.40;;;;;;5058483;28;19938;-75
2022/04/20 01:54:52;;;;;;;;;;;4.80;81.40;;;;;;5076226;28;19920;-74
2022/04/20 01:57:17;;;;;;;;;;;4.80;81.20;;;;;;5059590;28;19920;-75
2022/04/20 01:59:43;;;;;;;;;;;4.80;81.40;;;;;;5060992;28;19920;-75
2022/04/20 02:04:52;;;;;;;;;;;4.70;82.00;;;;;;5080094;28;20289;-75
2022/04/20 02:07:18;;;;;;;;;;;4.70;82.30;;;;;;5063555;28;19916;-75
2022/04/20 02:09:44;;;;;;;;;;;4.70;82.30;;;;;;5082331;28;19916;-74
2022/04/20 02:12:09;;;;;;;;;;;4.90;82.20;;;;;;5082309;28;19926;-75
2022/04/20 02:14:35;;;;;;;;;;;4.70;81.90;;;;;;5066698;28;19926;-75
2022/04/20 02:17:01;;;;;;;;;;;4.60;82.40;;;;;;5098426;28;19924;-74
2022/04/20 02:19:26;;;;;;;;;;;4.70;82.60;;;;;;5088257;28;19939;-74
2022/04/20 02:21:52;;;;;;;;;;;4.90;82.80;;;;;;5088100;28;19911;-74
2022/04/20 02:24:17;;;;;;;;;;;4.70;82.50;;;;;;5104677;28;19926;-75
2022/04/20 02:26:43;;;;;;;;;;;4.90;82.40;;;;;;5083760;28;19926;-74
2022/04/20 02:29:09;;;;;;;;;;;5.00;82.40;;;;;;5079481;28;19924;-75
2022/04/20 02:31:34;;;;;;;;;;;4.70;82.30;;;;;;5079335;28;19920;-75
2022/04/20 02:34:00;;;;;;;;;;;4.70;82.70;;;;;;5079577;28;19966;-74
2022/04/20 02:36:26;;;;;;;;;;;4.40;82.10;;;;;;5062902;28;19923;-74
2022/04/20 02:38:52;;;;;;;;;;;4.40;82.20;;;;;;5079574;28;20018;-75
2022/04/20 02:41:18;;;;;;;;;;;4.40;82.90;;;;;;5062876;28;20346;-74
2022/04/20 02:43:44;;;;;;;;;;;4.30;82.40;;;;;;5062148;28;19970;-74
2022/04/20 02:46:09;;;;;;;;;;;4.30;82.50;;;;;;5062297;28;20029;-74
2022/04/20 02:48:35;;;;;;;;;;;4.30;82.70;;;;;;5079441;28;19923;-75
2022/04/20 02:51:01;;;;;;;;;;;4.30;82.20;;;;;;5078402;28;19926;-74
2022/04/20 02:53:27;;;;;;;;;;;4.20;82.50;;;;;;5078917;28;19963;-75
2022/04/20 02:55:52;;;;;;;;;;;4.50;82.70;;;;;;5078474;28;19934;-74
2022/04/20 02:58:18;;;;;;;;;;;4.10;82.50;;;;;;5062479;28;20034;-75
2022/04/20 03:00:45;;;;;;;;;;;4.60;83.20;;;;;;5079531;28;19981;-75
2022/04/20 03:03:12;;;;;;;;;;;4.10;82.90;;;;;;5062090;28;19923;-75
2022/04/20 03:05:38;;;;;;;;;;;4.20;83.10;;;;;;5081101;28;19927;-73
2022/04/20 03:08:03;;;;;;;;;;;4.00;82.50;;;;;;5081728;28;19920;-73
2022/04/20 03:10:29;;;;;;;;;;;4.00;82.90;;;;;;5062904;28;20422;-74
2022/04/20 03:12:55;;;;;;;;;;;4.00;82.80;;;;;;5078054;28;20312;-75
2022/04/20 03:15:20;;;;;;;;;;;4.30;83.80;;;;;;5079115;28;19943;-75
2022/04/20 03:17:46;;;;;;;;;;;3.80;83.70;;;;;;5062588;28;19973;-74
2022/04/20 03:20:12;;;;;;;;;;;3.70;83.50;;;;;;5062179;28;19927;-75
2022/04/20 03:22:38;;;;;;;;;;;3.70;85.10;;;;;;5078523;28;19920;-75
2022/04/20 03:25:03;;;;;;;;;;;3.80;85.60;;;;;;5078447;28;19926;-74
2022/04/20 03:27:29;;;;;;;;;;;3.70;85.40;;;;;;5062184;28;20024;-75
2022/04/20 03:29:55;;;;;;;;;;;3.80;85.10;;;;;;5061911;28;19924;-76
2022/04/20 03:32:21;;;;;;;;;;;3.80;85.80;;;;;;5077888;28;19920;-75
2022/04/20 03:34:47;;;;;;;;;;;3.80;86.10;;;;;;5078634;28;19920;-74
2022/04/20 03:37:13;;;;;;;;;;;3.80;85.70;;;;;;5061848;28;19920;-75
2022/04/20 03:39:38;;;;;;;;;;;4.10;85.50;;;;;;5061824;28;20042;-74
2022/04/20 03:42:04;;;;;;;;;;;3.80;85.90;;;;;;5061501;28;20029;-75
2022/04/20 03:44:30;;;;;;;;;;;3.80;85.20;;;;;;5078386;28;19919;-75
2022/04/20 03:46:56;;;;;;;;;;;4.20;83.80;;;;;;5061015;28;19924;-74
2022/04/20 03:49:21;;;;;;;;;;;4.30;85.70;;;;;;5060937;28;19916;-76
2022/04/20 03:51:47;;;;;;;;;;;3.80;85.20;;;;;;5077109;28;19927;-74
2022/04/20 03:54:13;;;;;;;;;;;3.90;85.80;;;;;;5060908;28;19920;-75
2022/04/20 03:59:23;;;;;;;;;;;4.10;84.70;;;;;;5077644;28;20017;-74
2022/04/20 04:01:49;;;;;;;;;;;3.90;85.30;;;;;;5095602;28;19919;-74
2022/04/20 04:04:15;;;;;;;;;;;3.90;86.50;;;;;;5060792;28;19920;-75
2022/04/20 04:06:40;;;;;;;;;;;3.90;85.60;;;;;;5077891;28;19920;-75
2022/04/20 04:09:06;;;;;;;;;;;4.00;85.40;;;;;;5060669;28;19931;-74
2022/04/20 04:11:31;;;;;;;;;;;4.30;86.50;;;;;;5060661;28;19934;-74
2022/04/20 04:13:57;;;;;;;;;;;4.50;86.50;;;;;;5060693;28;19950;-74
2022/04/20 04:16:22;;;;;;;;;;;3.90;86.40;;;;;;5077676;28;19920;-74
2022/04/20 04:18:48;;;;;;;;;;;4.00;85.80;;;;;;5077222;28;20395;-73
2022/04/20 04:21:14;;;;;;;;;;;3.90;85.80;;;;;;5060465;28;19927;-74
2022/04/20 04:23:39;;;;;;;;;;;4.00;86.20;;;;;;5060440;28;20010;-74
2022/04/20 04:26:22;;;;;;;;;;;3.90;86.70;;;;;;5077604;28;19926;-71
2022/04/20 04:28:48;;;;;;;;;;;3.80;87.10;;;;;;5075890;28;20011;-69
2022/04/20 04:31:42;;;;;;;;;;;3.80;86.90;;;;;;5059575;28;20004;-71
2022/04/20 04:37:13;;;;;;;;;;;3.80;86.70;;;;;;5041672;28;20373;-69
2022/04/20 04:39:41;;;;;;;;;;;4.10;87.60;;;;;;5076158;28;19916;-70
2022/04/20 04:42:07;;;;;;;;;;;3.80;87.70;;;;;;5076685;28;19916;-70
2022/04/20 04:44:34;;;;;;;;;;;3.90;87.20;;;;;;5059518;28;20370;-69
2022/04/20 04:49:44;;;;;;;;;;;3.90;87.40;;;;;;5075214;28;20309;-70
2022/04/20 04:52:13;;;;;;;;;;;3.90;86.90;;;;;;5054606;28;19921;-70
2022/04/20 04:54:40;;;;;;;;;;;3.90;87.10;;;;;;5071639;28;20393;-70
2022/04/20 04:57:07;;;;;;;;;;;3.90;86.90;;;;;;5071858;28;19931;-71
2022/04/20 04:59:34;;;;;;;;;;;4.40;87.40;;;;;;5054941;28;19916;-71
2022/04/20 05:02:05;;;;;;;;;;;3.90;87.20;;;;;;5072439;28;20378;-70
2022/04/20 05:04:31;;;;;;;;;;;4.00;86.50;;;;;;5072012;28;20011;-71
2022/04/20 05:06:58;;;;;;;;;;;4.00;86.90;;;;;;5056523;28;20001;-70
2022/04/20 05:09:23;;;;;;;;;;;4.00;87.10;;;;;;5055623;28;19916;-71
2022/04/20 05:11:49;;;;;;;;;;;3.90;87.20;;;;;;5072469;28;20355;-71
2022/04/20 05:14:15;;;;;;;;;;;4.00;87.20;;;;;;5072310;28;19920;-70
2022/04/20 05:16:41;;;;;;;;;;;4.00;87.50;;;;;;5072517;28;19927;-70
2022/04/20 05:19:09;;;;;;;;;;;4.00;87.80;;;;;;5055588;28;19920;-70
2022/04/20 05:21:35;;;;;;;;;;;4.00;87.60;;;;;;5072457;28;20263;-70
2022/04/20 05:24:00;;;;;;;;;;;4.40;88.30;;;;;;5056030;28;19920;-70
2022/04/20 05:26:26;;;;;;;;;;;4.40;87.80;;;;;;5072229;28;19974;-70
2022/04/20 05:28:52;;;;;;;;;;;4.40;88.00;;;;;;5055440;28;20008;-70
2022/04/20 05:31:18;;;;;;;;;;;4.90;87.90;;;;;;5055102;28;19920;-70
2022/04/20 05:33:44;;;;;;;;;;;4.80;86.90;;;;;;5073425;28;20302;-70
2022/04/20 05:36:10;;;;;;;;;;;5.00;86.20;;;;;;5072089;28;19916;-71
2022/04/20 05:41:40;;;;;;;;;;;5.70;85.00;;;;;;5072469;28;19952;-71
2022/04/20 05:44:12;;;;;;;;;;;5.60;83.90;;;;;;5072331;28;20442;-71
2022/04/20 05:46:41;;;;;;;;;;;5.80;83.60;;;;;;5073501;28;20027;-71
2022/04/20 05:49:12;;;;;;;;;;;5.90;82.80;;;;;;5055907;28;20014;-71
2022/04/20 05:51:43;;;;;;;;;;;6.20;82.10;;;;;;5055107;28;19920;-71
2022/04/20 05:54:12;;;;;;;;;;;6.20;81.70;;;;;;5072109;28;19917;-71
2022/04/20 05:56:38;;;;;;;;;;;6.40;81.20;;;;;;5073389;28;20324;-71
2022/04/20 05:59:15;;;;;;;;;;;6.50;80.40;;;;;;5072097;28;19924;-71
2022/04/20 06:01:49;;;;;;;;;;;6.60;79.90;;;;;;5055533;28;19924;-71
2022/04/20 06:04:25;;;;;;;;;;;6.70;79.90;;;;;;5055918;28;19970;-71
2022/04/20 06:07:12;;;;;;;;;;;6.90;79.60;;;;;;5072180;28;19923;-71
2022/04/20 06:09:45;;;;;;;;;;;7.00;79.20;;;;;;5039901;28;19916;-72
2022/04/20 06:12:25;;;;;;;;;;;7.10;79.10;;;;;;5072222;28;19920;-72
2022/04/20 06:15:09;;;;;;;;;;;7.30;78.00;;;;;;5071571;28;19924;-71
2022/04/20 06:17:48;;;;;;;;;;;7.40;77.60;;;;;;5054877;28;19916;-71
2022/04/20 06:20:21;;;;;;;;;;;7.70;77.00;;;;;;5072067;28;19920;-72
2022/04/20 06:23:22;;;;;;;;;;;7.30;76.00;;;;;;5075472;28;19917;-70
2022/04/20 06:25:48;;;;;;;;;;;7.90;76.80;;;;;;5071550;28;19923;-72
2022/04/20 06:28:23;;;;;;;;;;;8.10;76.20;;;;;;5054293;28;20278;-71
2022/04/20 06:38:27;;;;;;;;;;;8.60;73.80;;;;;;5031012;28;19959;-76
2022/04/20 07:11:55;;;;;;;;;;;10.40;66.10;;;;;;5023381;28;19964;-75
2022/04/20 07:18:06;;;;;;;;;;;;;;;;;;;;;
2022/04/20 07:21:02;;;;;;;;;;;10.70;63.40;;;;;;5023546;28;19952;-73
2022/04/20 07:26:57;;;;;;;;;;;11.00;63.60;;;;;;5027070;28;19916;-71
2022/04/20 07:43:50;;;;;;;;;;;11.60;60.70;;;;;;4945474;28;19979;-73
2022/04/20 07:47:00;;;;;;;;;;;11.70;59.30;;;;;;4948479;28;20163;-72
2022/04/20 07:56:45;;;;;;;;;;;;;;;;;;;;;
2022/04/20 08:07:26;;;;;;;;;;;;;;;;;;;;;
2022/04/20 08:14:43;;;;;;;;;;;12.80;55.00;;;;;;4787545;30;19979;-74
2022/04/20 08:34:01;;;;;;;;;;;13.30;51.00;;;;;;4950026;29;19918;-76
2022/04/20 08:36:28;;;;;;;;;;;13.40;50.30;;;;;;4948357;28;19922;-74
2022/04/20 08:42:41;;;;;;;;;;;13.50;50.90;;;;;;5012040;28;20437;-73
2022/04/20 08:46:07;;;;;;;;;;;;;;;;;;;;;
2022/04/20 10:12:01;;;;;;;;;;;;;;;;;;;;;
2022/04/20 10:45:20;;;;;;;;;;;15.30;37.60;;;;;;4791636;29;19943;-74
2022/04/20 10:47:58;;;;;;;;;;;15.30;35.70;;;;;;4775028;29;19917;-73
2022/04/20 10:50:29;;;;;;;;;;;15.20;38.20;;;;;;4774085;30;19917;-70
2022/04/20 10:53:04;;;;;;;;;;;15.50;38.30;;;;;;4827055;29;19915;-71
2022/04/20 10:55:38;;;;;;;;;;;15.40;37.70;;;;;;4894825;29;19925;-70
2022/04/20 10:58:04;;;;;;;;;;;15.50;36.20;;;;;;4953924;29;20479;-71
2022/04/20 11:00:35;;;;;;;;;;;15.50;37.00;;;;;;4966091;28;20316;-69
2022/04/20 11:03:33;;;;;;;;;;;15.60;36.30;;;;;;4966516;28;19921;-72
2022/04/20 11:06:08;;;;;;;;;;;15.60;36.30;;;;;;4978278;28;19961;-71
2022/04/20 11:08:38;;;;;;;;;;;15.60;36.10;;;;;;4978106;28;20007;-70
2022/04/20 11:20:32;;;;;;;;;;;;;;;;;;;;;
2022/04/20 11:23:21;;;;;;;;;;;15.70;36.50;;;;;;5015762;28;19924;-70
2022/04/20 11:25:58;;;;;;;;;;;15.90;38.60;;;;;;4984311;28;20250;-70
2022/04/20 11:29:08;;;;;;;;;;;15.90;38.00;;;;;;4996419;28;19913;-70
2022/04/20 11:31:42;;;;;;;;;;;15.90;39.70;;;;;;5008943;28;20036;-70
2022/04/20 11:37:41;;;;;;;;;;;16.00;38.00;;;;;;5014738;28;19913;-70
2022/04/20 11:41:08;;;;;;;;;;;16.00;38.00;;;;;;5004575;28;20298;-70
2022/04/20 11:44:01;;;;;;;;;;;15.90;36.50;;;;;;4984489;28;19921;-70
2022/04/20 11:46:44;;;;;;;;;;;15.80;38.90;;;;;;5010233;28;19919;-70
2022/04/20 11:53:07;;;;;;;;;;;15.80;37.90;;;;;;5002420;28;19915;-70
2022/04/20 11:56:15;;;;;;;;;;;15.90;37.80;;;;;;5014591;28;19917;-71
2022/04/20 11:59:29;;;;;;;;;;;15.90;40.00;;;;;;4998124;28;20255;-71
2022/04/20 12:02:18;;;;;;;;;;;16.10;39.10;;;;;;4935028;29;19934;-71
2022/04/20 12:08:33;;;;;;;;;;;;;;;;;;;;;
2022/04/20 12:11:39;;;;;;;;;;;16.10;38.30;;;;;;4934758;29;19914;-70
2022/04/20 12:14:49;;;;;;;;;;;15.80;38.00;;;;;;4919302;29;20281;-70
2022/04/20 12:17:24;;;;;;;;;;;15.90;39.40;;;;;;4875088;29;19919;-71
2022/04/20 12:20:15;;;;;;;;;;;16.00;40.70;;;;;;4880698;29;20381;-71
2022/04/20 12:26:44;;;;;;;;;;;16.10;40.70;;;;;;4832080;29;19927;-71
2022/04/20 12:29:26;;;;;;;;;;;16.10;46.30;;;;;;4851034;29;19916;-70
2022/04/20 12:32:00;;;;;;;;;;;16.40;46.00;;;;;;4844834;29;19970;-70
2022/04/20 12:35:09;;;;;;;;;;;16.30;46.60;;;;;;4791531;29;19925;-71
2022/04/20 12:37:58;;;;;;;;;;;16.30;47.10;;;;;;4858025;29;20370;-71
2022/04/20 12:40:59;;;;;;;;;;;16.20;47.00;;;;;;4942257;28;19920;-71
2022/04/20 12:44:18;;;;;;;;;;;16.00;47.30;;;;;;4973411;28;19914;-70
2022/04/20 12:47:22;;;;;;;;;;;16.10;49.50;;;;;;4972926;28;19914;-70
2022/04/20 14:40:15;;;;;;;;;;;16.30;47.30;;;;;;5055916;28;19947;-72
2022/04/20 15:03:23;;;;;;;;;;;15.80;46.60;;;;;;4935212;29;20006;-72
2022/04/20 15:06:16;;;;;;;;;;;15.70;46.10;;;;;;4920021;29;20009;-71
2022/04/20 15:44:16;;;;;;;;;;;15.90;47.40;;;;;;4888922;29;20381;-72
2022/04/20 15:47:02;;;;;;;;;;;15.90;47.90;;;;;;4933774;29;19922;-73
2022/04/20 15:49:28;;;;;;;;;;;15.70;48.30;;;;;;4928450;29;20438;-73
2022/04/20 16:00:53;;;;;;;;;;;15.80;48.30;;;;;;5001544;28;19924;-69
2022/04/20 16:03:18;;;;;;;;;;;15.80;48.30;;;;;;5057216;28;19916;-69
2022/04/20 16:05:50;;;;;;;;;;;15.20;49.10;;;;;;5037254;28;20328;-69
2022/04/20 16:11:13;;;;;;;;;;;14.70;52.00;;;;;;5040458;28;20043;-76
2022/04/20 16:13:48;;;;;;;;;;;14.00;53.00;;;;;;4991237;28;20299;-76
2022/04/20 16:19:45;;;;;;;;;;;13.70;54.70;;;;;;5050376;28;19916;-73
2022/04/20 16:22:10;;;;;;;;;;;13.40;56.00;;;;;;5030328;28;19923;-71
2022/04/20 16:25:02;;;;;;;;;;;13.40;55.60;;;;;;5017013;28;19916;-68
2022/04/20 16:27:28;;;;;;;;;;;13.20;56.40;;;;;;5044389;28;19916;-68
2022/04/20 16:29:54;;;;;;;;;;;13.00;57.30;;;;;;5028655;28;19990;-70
2022/04/20 16:35:30;;;;;;;;;;;12.90;58.60;;;;;;5034277;28;20011;-68
2022/04/20 16:37:56;;;;;;;;;;;12.90;57.90;;;;;;5019667;28;19920;-70
2022/04/20 16:43:36;;;;;;;;;;;12.80;58.90;;;;;;5029477;28;19923;-70
2022/04/20 16:46:42;;;;;;;;;;;12.70;60.70;;;;;;5035120;28;19927;-70
2022/04/20 16:49:45;;;;;;;;;;;12.70;60.00;;;;;;5001357;28;19930;-69
2022/04/20 16:52:21;;;;;;;;;;;12.70;59.30;;;;;;4954575;28;19922;-69
2022/04/20 16:54:46;;;;;;;;;;;12.60;59.70;;;;;;4984401;28;19917;-70
2022/04/20 16:57:23;;;;;;;;;;;12.60;59.50;;;;;;4963451;28;19940;-72
2022/04/20 17:00:05;;;;;;;;;;;12.60;60.30;;;;;;4976109;28;19916;-74
2022/04/20 17:02:31;;;;;;;;;;;12.50;60.00;;;;;;5002397;28;19916;-74
2022/04/20 17:05:09;;;;;;;;;;;12.50;59.40;;;;;;5018666;28;19970;-75
2022/04/20 17:07:38;;;;;;;;;;;12.40;58.90;;;;;;5034866;28;19916;-74
2022/04/20 17:10:07;;;;;;;;;;;12.40;59.10;;;;;;5019468;28;19966;-76
2022/04/20 17:12:35;;;;;;;;;;;12.30;60.10;;;;;;5021755;28;19928;-73
2022/04/20 17:15:02;;;;;;;;;;;12.30;60.10;;;;;;5000707;28;19921;-74
2022/04/20 17:17:28;;;;;;;;;;;12.20;60.60;;;;;;4999124;28;20379;-74
2022/04/20 17:19:53;;;;;;;;;;;12.10;60.50;;;;;;5008580;28;19932;-74
2022/04/20 17:27:50;;;;;;;;;;;11.90;61.10;;;;;;5034930;28;19917;-71
2022/04/20 17:30:16;;;;;;;;;;;11.90;61.50;;;;;;5034683;28;19921;-67
2022/04/20 17:32:42;;;;;;;;;;;11.80;62.20;;;;;;5018115;28;20416;-68
2022/04/20 17:37:52;;;;;;;;;;;11.70;63.20;;;;;;5033947;28;19971;-68
2022/04/20 17:40:17;;;;;;;;;;;11.60;62.90;;;;;;5035332;28;19921;-67
2022/04/20 17:42:43;;;;;;;;;;;11.50;62.70;;;;;;5035709;28;19917;-67
2022/04/20 17:45:09;;;;;;;;;;;11.50;62.60;;;;;;5036015;28;20396;-67
2022/04/20 17:47:34;;;;;;;;;;;11.30;62.90;;;;;;5035614;28;19917;-67
2022/04/20 17:50:00;;;;;;;;;;;11.40;63.30;;;;;;5035532;28;20263;-67
2022/04/20 17:52:25;;;;;;;;;;;11.30;63.20;;;;;;5018370;28;19921;-67
2022/04/20 17:54:54;;;;;;;;;;;11.20;63.40;;;;;;5034862;28;20446;-69
2022/04/20 17:57:20;;;;;;;;;;;11.20;63.40;;;;;;5017961;28;20378;-69
2022/04/20 17:59:46;;;;;;;;;;;11.00;63.50;;;;;;5035116;28;19916;-69
2022/04/20 18:02:14;;;;;;;;;;;11.00;64.10;;;;;;5035025;28;19928;-70
2022/04/20 18:04:40;;;;;;;;;;;11.00;64.30;;;;;;5018872;28;19917;-70
2022/04/20 18:07:27;;;;;;;;;;;10.90;63.80;;;;;;5053568;28;19923;-73
2022/04/20 18:09:52;;;;;;;;;;;10.80;64.20;;;;;;5034982;28;19920;-74
2022/04/20 18:12:17;;;;;;;;;;;10.80;64.90;;;;;;5022053;28;20259;-68
2022/04/20 18:14:43;;;;;;;;;;;10.70;65.20;;;;;;5043197;28;20349;-69
2022/04/20 18:17:08;;;;;;;;;;;10.60;65.00;;;;;;5041863;28;19916;-66
2022/04/20 18:19:37;;;;;;;;;;;10.50;65.20;;;;;;5041337;28;20367;-67
2022/04/20 18:25:19;;;;;;;;;;;10.40;66.00;;;;;;5022693;28;20020;-67
2022/04/20 18:28:02;;;;;;;;;;;10.30;65.70;;;;;;5034631;28;19921;-68
2022/04/20 18:30:29;;;;;;;;;;;10.20;66.60;;;;;;5021170;28;20329;-69
2022/04/20 18:32:56;;;;;;;;;;;10.10;66.30;;;;;;5016583;28;20418;-65
2022/04/20 18:36:04;;;;;;;;;;;10.10;66.90;;;;;;5033161;28;20383;-75
2022/04/20 18:39:07;;;;;;;;;;;10.00;66.60;;;;;;4995032;28;19925;-73
2022/04/20 18:44:48;;;;;;;;;;;9.70;68.00;;;;;;5002115;28;19924;-70
2022/04/20 18:47:32;;;;;;;;;;;9.70;68.20;;;;;;5003765;28;19929;-73
2022/04/20 18:50:31;;;;;;;;;;;9.60;68.80;;;;;;4991350;28;20267;-74
2022/04/20 18:59:31;;;;;;;;;;;9.30;70.40;;;;;;5000847;28;20016;-73
2022/04/20 19:02:05;;;;;;;;;;;9.20;69.90;;;;;;5008041;28;19975;-69
2022/04/20 19:04:49;;;;;;;;;;;9.10;70.90;;;;;;4995990;28;19918;-68
2022/04/20 19:07:22;;;;;;;;;;;9.00;71.20;;;;;;5014346;28;19917;-69
2022/04/20 19:16:55;;;;;;;;;;;8.70;72.10;;;;;;4969119;28;19925;-70
2022/04/20 19:23:21;;;;;;;;;;;8.40;73.00;;;;;;5049587;28;20282;-70
2022/04/20 19:25:54;;;;;;;;;;;8.20;73.80;;;;;;5012804;28;19924;-66
2022/04/20 19:28:21;;;;;;;;;;;8.20;74.00;;;;;;5003486;28;20003;-68
2022/04/20 19:31:22;;;;;;;;;;;;;;;;;;;;;
2022/04/20 19:34:10;;;;;;;;;;;8.00;73.90;;;;;;5012437;28;20019;-67
2022/04/20 19:36:42;;;;;;;;;;;8.10;73.20;;;;;;5022185;28;19920;-68
2022/04/20 19:39:11;;;;;;;;;;;8.10;73.40;;;;;;5037234;28;19922;-68
2022/04/20 19:41:37;;;;;;;;;;;8.10;73.20;;;;;;5020675;28;19952;-67
2022/04/20 19:44:03;;;;;;;;;;;8.10;72.30;;;;;;5021798;28;20335;-71
2022/04/20 19:46:31;;;;;;;;;;;8.10;72.50;;;;;;5037316;28;19927;-76
2022/04/20 19:49:23;;;;;;;;;;;8.10;72.30;;;;;;5021639;28;19923;-76
2022/04/20 19:51:49;;;;;;;;;;;8.10;72.90;;;;;;5020420;28;19975;-75
2022/04/20 19:54:15;;;;;;;;;;;8.00;73.10;;;;;;5020904;28;19917;-74
2022/04/20 19:56:40;;;;;;;;;;;8.00;73.50;;;;;;5021084;28;19963;-75
2022/04/20 19:59:07;;;;;;;;;;;7.90;74.10;;;;;;5021001;28;19917;-76
2022/04/20 20:01:33;;;;;;;;;;;8.10;73.50;;;;;;5036841;28;20421;-75
2022/04/20 20:03:58;;;;;;;;;;;7.80;73.90;;;;;;5021183;28;19917;-74
2022/04/20 20:06:24;;;;;;;;;;;7.70;73.60;;;;;;5021062;28;19966;-75
2022/04/20 20:08:51;;;;;;;;;;;7.90;75.10;;;;;;5021066;28;19971;-74
2022/04/20 20:11:17;;;;;;;;;;;7.70;75.00;;;;;;5020769;28;20019;-74
2022/04/20 20:13:44;;;;;;;;;;;7.60;75.30;;;;;;5037350;28;20283;-74
2022/04/20 20:16:10;;;;;;;;;;;7.60;75.20;;;;;;5037233;28;19923;-75
2022/04/20 20:18:36;;;;;;;;;;;7.50;75.50;;;;;;5037296;28;20289;-75
2022/04/20 20:21:05;;;;;;;;;;;7.60;74.40;;;;;;5037534;28;19921;-76
2022/04/20 20:31:46;;;;;;;;;;;7.50;75.20;;;;;;5036563;28;19967;-76
2022/04/20 20:34:12;;;;;;;;;;;7.40;75.50;;;;;;5020209;28;19990;-75
2022/04/20 20:36:39;;;;;;;;;;;7.60;75.80;;;;;;5036974;28;19917;-75
2022/04/20 20:39:05;;;;;;;;;;;7.40;75.70;;;;;;5020284;28;19943;-77
2022/04/20 20:41:31;;;;;;;;;;;7.40;76.40;;;;;;5020729;28;19947;-76
2022/04/20 20:44:00;;;;;;;;;;;7.10;76.40;;;;;;5020550;28;19920;-73
2022/04/20 20:46:52;;;;;;;;;;;7.30;76.60;;;;;;5021405;28;20317;-74
2022/04/20 20:52:34;;;;;;;;;;;7.30;76.60;;;;;;5056128;28;19921;-74
2022/04/20 20:58:00;;;;;;;;;;;7.40;76.80;;;;;;5030528;28;19917;-76
2022/04/20 21:47:25;;;;;;;;;;;6.00;81.10;;;;;;6092754;22;19964;-70
2022/04/20 21:49:53;;;;;;;;;;;6.00;81.40;;;;;;5039469;28;19916;-73
2022/04/20 21:55:51;;;;;;;;;;;6.00;80.30;;;;;;4974170;28;19925;-75
2022/04/20 21:58:18;;;;;;;;;;;5.80;79.50;;;;;;4964305;28;19913;-75
2022/04/20 22:00:58;;;;;;;;;;;5.80;80.30;;;;;;5015973;28;19913;-79
2022/04/20 22:09:33;;;;;;;;;;;5.80;83.60;;;;;;5022849;28;19920;-74
2022/04/20 22:12:01;;;;;;;;;;;5.80;83.10;;;;;;5012862;28;19913;-75
2022/04/20 22:14:29;;;;;;;;;;;5.40;82.80;;;;;;5017971;28;19920;-73
2022/04/20 22:16:56;;;;;;;;;;;5.40;82.60;;;;;;5023413;28;19912;-73
2022/04/20 22:19:34;;;;;;;;;;;5.30;83.10;;;;;;5019926;28;19913;-76
2022/04/20 22:22:00;;;;;;;;;;;5.40;81.50;;;;;;5019204;28;19962;-75
2022/04/20 22:24:32;;;;;;;;;;;5.30;83.40;;;;;;5031367;28;19917;-77
2022/04/20 22:26:59;;;;;;;;;;;5.20;84.00;;;;;;5032745;28;19920;-76
2022/04/20 22:29:25;;;;;;;;;;;5.30;83.90;;;;;;5038337;28;19967;-77
2022/04/20 22:31:51;;;;;;;;;;;5.20;85.40;;;;;;5022088;28;19952;-77
2022/04/20 22:34:17;;;;;;;;;;;5.50;86.60;;;;;;5038430;28;19916;-77
2022/04/20 22:36:42;;;;;;;;;;;5.20;86.40;;;;;;5021497;28;19913;-76
2022/04/20 22:39:12;;;;;;;;;;;5.20;85.40;;;;;;5018909;28;19962;-77
2022/04/20 22:41:39;;;;;;;;;;;5.30;84.60;;;;;;5038384;28;19913;-76
2022/04/20 22:44:05;;;;;;;;;;;5.10;84.60;;;;;;5037986;28;19945;-76
2022/04/20 22:46:31;;;;;;;;;;;5.70;85.10;;;;;;5037981;28;19917;-75
2022/04/20 22:48:57;;;;;;;;;;;5.30;84.90;;;;;;5021187;28;19923;-75
2022/04/20 22:51:23;;;;;;;;;;;4.80;84.70;;;;;;5038008;28;20385;-76
2022/04/20 22:53:49;;;;;;;;;;;5.30;85.30;;;;;;5038504;28;19916;-78
2022/04/20 22:56:14;;;;;;;;;;;5.40;84.60;;;;;;5038562;28;19923;-75
2022/04/20 22:58:40;;;;;;;;;;;5.50;85.10;;;;;;5021791;28;20274;-76
2022/04/20 23:01:06;;;;;;;;;;;5.40;84.10;;;;;;5022247;28;20013;-77
2022/04/20 23:03:31;;;;;;;;;;;5.40;83.70;;;;;;5038384;28;20509;-76
2022/04/20 23:05:57;;;;;;;;;;;5.20;83.70;;;;;;5038004;28;19912;-75
2022/04/20 23:08:23;;;;;;;;;;;5.40;82.90;;;;;;5022390;28;20262;-76
2022/04/20 23:10:49;;;;;;;;;;;5.20;83.50;;;;;;5022285;28;19917;-77
2022/04/20 23:13:15;;;;;;;;;;;5.10;84.70;;;;;;5022005;28;19917;-76
2022/04/20 23:15:41;;;;;;;;;;;5.20;85.00;;;;;;5021767;28;20301;-78
2022/04/20 23:18:06;;;;;;;;;;;5.10;83.00;;;;;;5021969;28;20404;-77
2022/04/20 23:20:32;;;;;;;;;;;5.10;84.30;;;;;;5038377;28;19966;-76
2022/04/20 23:22:57;;;;;;;;;;;5.20;85.80;;;;;;5038478;28;19916;-76
2022/04/20 23:30:55;;;;;;;;;;;5.20;87.30;;;;;;5038229;28;19916;-76
2022/04/20 23:33:20;;;;;;;;;;;5.40;87.90;;;;;;5021403;28;19917;-76
2022/04/20 23:35:46;;;;;;;;;;;5.40;88.00;;;;;;5021248;28;19920;-76
2022/04/20 23:38:12;;;;;;;;;;;5.30;87.50;;;;;;5021818;28;20289;-76
2022/04/20 23:40:38;;;;;;;;;;;5.40;86.10;;;;;;5037886;28;19918;-76
2022/04/20 23:43:04;;;;;;;;;;;5.60;87.40;;;;;;5038187;28;20007;-76
2022/04/20 23:45:32;;;;;;;;;;;5.60;86.90;;;;;;5021418;28;19924;-77
2022/04/20 23:48:10;;;;;;;;;;;6.50;87.60;;;;;;5037726;28;20014;-76
2022/04/20 23:50:36;;;;;;;;;;;5.70;86.40;;;;;;5021412;28;19920;-75
2022/04/20 23:53:02;;;;;;;;;;;6.00;85.80;;;;;;5037369;28;19924;-76
2022/04/20 23:55:28;;;;;;;;;;;6.00;85.80;;;;;;5037462;28;19912;-77
2022/04/20 23:57:53;;;;;;;;;;;5.70;86.70;;;;;;5020605;28;19919;-76
